Time;durP1;ratioP1;P1;durP2;ratioP2;P2;SDS_P1;SDS_P2;PMS_P1;PMS_P2;Temp;Humidity;BMP_temperature;BMP_pressure;BME280_temperature;BME280_humidity;BME280_pressure;Samples;Min_cycle;Max_cycle;Signal;HPM_P1;HPM_P2
2022/12/12 00:00:19;;;;;;;11.37;3.17;;;0.20;99.90;;;;;;5115189;28;20512;-61
2022/12/12 00:02:46;;;;;;;7.30;2.80;;;0.20;99.90;;;;;;5115994;28;20484;-61
2022/12/12 00:05:15;;;;;;;9.53;2.90;;;0.00;99.90;;;;;;5116219;28;20448;-61
2022/12/12 00:07:42;;;;;;;7.13;2.10;;;-0.10;99.90;;;;;;5116127;28;20509;-61
2022/12/12 00:10:10;;;;;;;9.20;2.90;;;-0.30;99.90;;;;;;5116373;28;20444;-61
2022/12/12 00:12:37;;;;;;;8.47;2.60;;;-0.40;99.90;;;;;;5116756;28;20495;-60
2022/12/12 00:15:05;;;;;;;5.90;2.27;;;-0.40;99.90;;;;;;5116715;28;20453;-61
2022/12/12 00:17:33;;;;;;;9.80;2.40;;;-0.30;99.90;;;;;;5116468;28;20456;-61
2022/12/12 00:20:00;;;;;;;8.37;2.10;;;-0.30;99.90;;;;;;5115892;28;20970;-61
2022/12/12 00:22:27;;;;;;;9.40;2.30;;;-0.30;99.90;;;;;;5116974;28;20541;-61
2022/12/12 00:24:54;;;;;;;8.10;3.13;;;-0.30;99.90;;;;;;5116162;28;20445;-62
2022/12/12 00:27:21;;;;;;;8.80;2.43;;;-0.10;99.90;;;;;;5116315;28;20488;-60
2022/12/12 00:29:52;;;;;;;9.93;2.73;;;0.20;99.90;;;;;;5116078;28;20891;-61
2022/12/12 00:32:19;;;;;;;9.87;2.23;;;0.30;99.90;;;;;;5116346;28;20952;-61
2022/12/12 00:34:47;;;;;;;10.40;2.80;;;0.20;99.90;;;;;;5116120;28;20883;-63
2022/12/12 00:37:14;;;;;;;8.80;3.47;;;0.10;99.90;;;;;;5116053;28;20502;-60
2022/12/12 00:39:41;;;;;;;9.10;2.70;;;0.00;99.90;;;;;;5115936;28;20491;-61
2022/12/12 00:42:08;;;;;;;6.60;1.77;;;-0.10;99.90;;;;;;5115639;28;20922;-60
2022/12/12 00:44:35;;;;;;;7.83;2.20;;;-0.20;99.90;;;;;;5115918;28;20535;-60
2022/12/12 00:47:02;;;;;;;7.30;2.37;;;-0.30;99.90;;;;;;5116268;28;20452;-60
2022/12/12 00:49:30;;;;;;;6.33;1.93;;;-0.30;99.90;;;;;;5116290;28;20835;-61
2022/12/12 00:51:58;;;;;;;4.53;2.20;;;-0.40;99.90;;;;;;5116166;28;20455;-61
2022/12/12 00:54:25;;;;;;;7.37;2.37;;;-0.50;99.90;;;;;;5116121;28;20444;-60
2022/12/12 00:56:52;;;;;;;9.03;2.50;;;-0.50;99.90;;;;;;5115975;28;20492;-60
2022/12/12 00:59:19;;;;;;;10.20;2.13;;;-0.50;99.90;;;;;;5115620;28;20468;-61
2022/12/12 01:01:47;;;;;;;4.70;1.43;;;-0.40;99.90;;;;;;5116114;28;20491;-61
2022/12/12 01:04:14;;;;;;;7.50;1.40;;;-0.30;99.90;;;;;;5116174;28;20480;-60
2022/12/12 01:06:41;;;;;;;6.80;1.40;;;-0.30;99.90;;;;;;5117144;28;20449;-60
2022/12/12 01:09:09;;;;;;;4.90;1.70;;;-0.20;99.90;;;;;;5119425;28;20449;-60
2022/12/12 01:11:36;;;;;;;4.70;2.20;;;-0.20;99.90;;;;;;5119453;28;20784;-61
2022/12/12 01:14:03;;;;;;;4.00;1.30;;;-0.30;99.90;;;;;;5119854;28;20452;-60
2022/12/12 01:16:31;;;;;;;5.90;2.33;;;-0.40;99.90;;;;;;5119632;28;20510;-61
2022/12/12 01:18:58;;;;;;;4.70;2.03;;;-0.40;99.90;;;;;;5119489;28;20444;-61
2022/12/12 01:21:25;;;;;;;6.50;1.60;;;-0.30;99.90;;;;;;5118637;28;20519;-60
2022/12/12 01:23:52;;;;;;;2.77;1.27;;;-0.30;99.90;;;;;;5119516;28;20441;-60
2022/12/12 01:26:23;;;;;;;3.60;1.20;;;-0.40;99.90;;;;;;5118896;28;20452;-60
2022/12/12 01:28:50;;;;;;;4.60;1.60;;;-0.50;99.90;;;;;;5118962;28;20484;-60
2022/12/12 01:31:17;;;;;;;9.80;2.13;;;-0.30;99.90;;;;;;5119055;28;20522;-60
2022/12/12 01:33:44;;;;;;;7.13;2.80;;;-0.30;99.90;;;;;;5118982;28;20472;-60
2022/12/12 01:36:15;;;;;;;8.57;2.53;;;-0.40;99.90;;;;;;5119050;28;20457;-60
2022/12/12 01:38:44;;;;;;;8.90;3.07;;;-0.40;99.90;;;;;;5118835;28;20444;-61
2022/12/12 01:41:11;;;;;;;8.77;2.13;;;-0.50;99.90;;;;;;5119255;28;20934;-60
2022/12/12 01:43:40;;;;;;;2.87;1.27;;;-0.50;99.90;;;;;;5119551;28;20445;-61
2022/12/12 01:46:40;;;;;;;6.23;1.77;;;-0.60;99.90;;;;;;5118891;28;20457;-60
2022/12/12 01:49:17;;;;;;;6.43;1.80;;;-0.60;99.90;;;;;;5119119;28;20529;-60
2022/12/12 01:51:45;;;;;;;3.83;2.30;;;-0.60;99.90;;;;;;5119401;28;20444;-60
2022/12/12 01:54:16;;;;;;;5.50;1.80;;;-0.60;99.90;;;;;;5119088;28;20433;-60
2022/12/12 01:56:46;;;;;;;6.43;1.70;;;-0.70;99.90;;;;;;5118926;28;20449;-60
2022/12/12 01:59:17;;;;;;;7.57;2.00;;;-0.70;99.90;;;;;;5118900;28;20776;-62
2022/12/12 02:01:45;;;;;;;6.30;1.90;;;-0.70;99.90;;;;;;5118785;28;20512;-60
2022/12/12 02:04:14;;;;;;;5.27;1.27;;;-0.80;99.90;;;;;;5118771;28;20445;-60
2022/12/12 02:06:42;;;;;;;5.73;2.00;;;-0.80;99.90;;;;;;5118635;28;20456;-60
2022/12/12 02:09:11;;;;;;;5.00;1.40;;;-0.80;99.90;;;;;;5118709;28;20459;-60
2022/12/12 02:11:44;;;;;;;6.10;1.70;;;-0.80;99.90;;;;;;5117599;28;20899;-60
2022/12/12 02:14:13;;;;;;;3.90;1.20;;;-0.80;99.90;;;;;;5118709;28;20477;-60
2022/12/12 02:16:54;;;;;;;3.87;1.53;;;-0.70;99.90;;;;;;5118651;28;20496;-62
2022/12/12 02:19:56;;;;;;;3.60;1.20;;;-0.80;99.90;;;;;;5117905;28;20821;-60
2022/12/12 02:22:40;;;;;;;8.33;1.30;;;-0.90;99.90;;;;;;5117997;28;20802;-60
2022/12/12 02:25:40;;;;;;;5.03;1.40;;;-1.00;99.90;;;;;;5118287;28;20502;-61
2022/12/12 02:28:26;;;;;;;4.97;2.20;;;-1.00;99.90;;;;;;5118239;28;20794;-61
2022/12/12 02:31:10;;;;;;;10.00;3.00;;;-1.10;99.90;;;;;;5117935;28;20462;-61
2022/12/12 02:33:45;;;;;;;11.20;1.90;;;-1.20;99.90;;;;;;5118410;28;20479;-61
2022/12/12 02:36:20;;;;;;;5.87;2.73;;;-1.20;99.90;;;;;;5118130;28;20483;-61
2022/12/12 02:38:53;;;;;;;6.53;2.13;;;-1.30;99.90;;;;;;5117950;28;20530;-61
2022/12/12 02:41:28;;;;;;;4.23;1.33;;;-1.40;99.90;;;;;;5117607;28;20483;-60
2022/12/12 02:44:06;;;;;;;6.03;2.50;;;-1.50;99.90;;;;;;5118228;28;20448;-61
2022/12/12 02:46:41;;;;;;;7.30;2.93;;;-1.50;99.90;;;;;;5118065;28;20457;-61
2022/12/12 02:49:13;;;;;;;7.40;2.10;;;-1.30;99.90;;;;;;5117734;28;20541;-60
2022/12/12 02:51:42;;;;;;;4.23;1.43;;;-1.30;99.90;;;;;;5117791;28;20484;-60
2022/12/12 02:54:16;;;;;;;7.20;2.27;;;-1.20;99.90;;;;;;5117959;28;20500;-60
2022/12/12 02:56:47;;;;;;;6.80;2.40;;;-1.20;99.90;;;;;;5117584;28;20510;-61
2022/12/12 02:59:23;;;;;;;6.80;1.70;;;-1.40;99.90;;;;;;5117471;28;20762;-61
2022/12/12 03:02:09;;;;;;;7.77;2.97;;;-1.30;99.90;;;;;;5117484;28;20519;-61
2022/12/12 03:08:03;;;;;;;4.57;1.50;;;-1.30;99.90;;;;;;5033400;28;20518;-60
2022/12/12 03:10:42;;;;;;;12.00;3.27;;;-1.40;99.90;;;;;;5033938;28;20440;-60
2022/12/12 03:13:17;;;;;;;9.97;3.33;;;-1.50;99.90;;;;;;5085902;28;20441;-60
2022/12/12 03:15:56;;;;;;;10.23;3.00;;;-1.50;99.90;;;;;;5116172;28;20491;-60
2022/12/12 03:18:30;;;;;;;7.23;2.70;;;-1.50;99.90;;;;;;5117423;28;20472;-61
2022/12/12 03:21:03;;;;;;;6.03;2.10;;;-1.40;99.90;;;;;;5116400;28;20570;-60
2022/12/12 03:23:37;;;;;;;5.27;1.40;;;-1.40;99.90;;;;;;5115259;28;20868;-61
2022/12/12 03:26:09;;;;;;;8.33;2.83;;;-1.40;99.90;;;;;;5115147;28;20450;-60
2022/12/12 03:28:41;;;;;;;8.50;2.63;;;-1.40;99.90;;;;;;5116181;28;20448;-60
2022/12/12 03:31:11;;;;;;;8.67;3.73;;;-1.40;99.90;;;;;;5117228;28;20495;-60
2022/12/12 03:33:44;;;;;;;8.43;4.30;;;-1.30;99.90;;;;;;5117274;28;20488;-59
2022/12/12 03:36:15;;;;;;;7.53;2.37;;;-1.40;99.90;;;;;;5116758;28;20488;-61
2022/12/12 03:38:47;;;;;;;12.43;3.67;;;-1.40;99.90;;;;;;5116719;28;20456;-59
2022/12/12 03:41:19;;;;;;;7.60;2.93;;;-1.40;99.90;;;;;;5116662;28;20548;-59
2022/12/12 03:43:50;;;;;;;12.70;6.68;;;-1.40;99.90;;;;;;5115810;28;20511;-61
2022/12/12 03:46:20;;;;;;;9.97;3.87;;;-1.50;99.90;;;;;;5116562;28;20599;-59
2022/12/12 03:48:54;;;;;;;6.80;3.57;;;-1.40;99.90;;;;;;5116857;28;20450;-61
2022/12/12 03:51:28;;;;;;;11.10;3.10;;;-1.40;99.90;;;;;;5116673;28;20490;-62
2022/12/12 03:54:00;;;;;;;10.73;2.30;;;-1.40;99.90;;;;;;5115732;28;20472;-60
2022/12/12 03:56:32;;;;;;;5.73;2.37;;;-1.30;99.90;;;;;;5116365;28;20507;-60
2022/12/12 03:59:03;;;;;;;7.40;3.03;;;-1.20;99.90;;;;;;5116507;28;20518;-59
2022/12/12 04:01:38;;;;;;;8.57;3.07;;;-1.20;99.90;;;;;;5116443;28;20514;-60
2022/12/12 04:04:14;;;;;;;9.77;3.40;;;-1.20;99.90;;;;;;5116117;28;20793;-61
2022/12/12 04:06:45;;;;;;;9.40;3.43;;;-1.30;99.90;;;;;;5116351;28;20954;-59
2022/12/12 04:15:31;;;;;;;10.60;4.70;;;-1.60;99.90;;;;;;5115955;28;20413;-60
2022/12/12 04:18:08;;;;;;;6.97;1.97;;;-1.70;99.90;;;;;;5116408;28;20455;-60
2022/12/12 04:23:34;;;;;;;10.90;3.77;;;-1.90;99.90;;;;;;5115834;28;20424;-60
2022/12/12 04:29:02;;;;;;;10.50;2.90;;;-2.00;99.90;;;;;;5113876;28;20758;-60
2022/12/12 04:31:33;;;;;;;7.10;2.40;;;-2.00;99.90;;;;;;5114705;28;20453;-60
2022/12/12 04:34:04;;;;;;;10.03;4.20;;;-1.90;99.90;;;;;;5114717;28;20498;-60
2022/12/12 04:36:34;;;;;;;9.10;3.97;;;-1.90;99.90;;;;;;5115070;28;20456;-60
2022/12/12 04:39:02;;;;;;;10.63;2.83;;;-1.90;99.90;;;;;;5114658;28;20448;-60
2022/12/12 04:41:33;;;;;;;16.63;5.10;;;-1.90;99.90;;;;;;5116204;28;20552;-60
2022/12/12 04:44:01;;;;;;;7.67;2.53;;;-1.80;99.90;;;;;;5120313;28;20479;-59
2022/12/12 04:46:32;;;;;;;9.30;4.67;;;-1.90;99.90;;;;;;5119858;28;20876;-59
2022/12/12 04:49:03;;;;;;;11.77;3.33;;;-1.90;99.90;;;;;;5119183;28;20483;-60
2022/12/12 04:51:34;;;;;;;13.40;6.30;;;-1.90;99.90;;;;;;5119711;28;20947;-60
2022/12/12 04:54:09;;;;;;;9.63;2.40;;;-1.90;99.90;;;;;;5119601;28;20852;-60
2022/12/12 04:56:38;;;;;;;14.87;4.27;;;-1.60;99.90;;;;;;5119965;28;20944;-60
2022/12/12 04:59:06;;;;;;;10.33;4.20;;;-1.60;99.90;;;;;;5119605;28;20866;-60
2022/12/12 05:01:43;;;;;;;8.83;3.27;;;-1.60;99.90;;;;;;5119645;28;20491;-59
2022/12/12 05:04:14;;;;;;;14.83;4.67;;;-1.50;99.90;;;;;;5119785;28;20444;-59
2022/12/12 05:06:46;;;;;;;15.17;5.10;;;-1.50;99.90;;;;;;5120191;28;20460;-60
2022/12/12 05:09:14;;;;;;;12.23;4.77;;;-1.60;99.90;;;;;;5119264;28;20505;-59
2022/12/12 05:11:42;;;;;;;10.90;5.00;;;-1.50;99.90;;;;;;5119642;28;20449;-59
2022/12/12 05:14:10;;;;;;;9.53;4.17;;;-1.30;99.90;;;;;;5119749;28;20491;-59
2022/12/12 05:16:41;;;;;;;10.00;5.87;;;-1.40;99.90;;;;;;5118289;28;20480;-61
2022/12/12 05:19:08;;;;;;;9.27;2.87;;;-1.50;99.90;;;;;;5118280;28;20476;-61
2022/12/12 05:21:35;;;;;;;16.30;6.30;;;-1.70;99.90;;;;;;5118357;28;20873;-59
2022/12/12 05:24:03;;;;;;;11.37;4.50;;;-1.60;99.90;;;;;;5119161;28;20502;-59
2022/12/12 05:26:32;;;;;;;7.63;2.50;;;-1.70;99.90;;;;;;5118840;28;20792;-59
2022/12/12 05:28:59;;;;;;;10.07;4.43;;;-1.70;99.90;;;;;;5118465;28;20802;-59
2022/12/12 05:31:26;;;;;;;8.67;5.00;;;-1.70;99.90;;;;;;5117960;28;20491;-59
2022/12/12 05:33:54;;;;;;;13.10;4.27;;;-1.70;99.90;;;;;;5118451;28;20444;-60
2022/12/12 05:36:21;;;;;;;8.40;4.90;;;-1.70;99.90;;;;;;5117953;28;20923;-59
2022/12/12 05:38:48;;;;;;;12.27;5.00;;;-1.70;99.90;;;;;;5117912;28;20451;-59
2022/12/12 05:41:16;;;;;;;9.43;4.10;;;-1.70;99.90;;;;;;5118853;28;21004;-59
2022/12/12 05:43:43;;;;;;;11.73;4.03;;;-1.80;99.90;;;;;;5118987;28;20475;-59
2022/12/12 05:46:10;;;;;;;8.53;3.33;;;-1.70;99.90;;;;;;5119333;28;20476;-59
2022/12/12 05:48:37;;;;;;;11.43;4.70;;;-1.60;99.90;;;;;;5118693;28;20498;-60
2022/12/12 05:51:04;;;;;;;8.27;4.00;;;-1.60;99.90;;;;;;5118277;28;20488;-59
2022/12/12 05:53:31;;;;;;;9.90;3.47;;;-1.50;99.90;;;;;;5118125;28;20473;-59
2022/12/12 05:55:58;;;;;;;11.80;5.30;;;-1.40;99.90;;;;;;5118805;28;20488;-59
2022/12/12 05:58:26;;;;;;;13.63;4.70;;;-1.40;99.90;;;;;;5118311;28;20480;-60
2022/12/12 06:00:53;;;;;;;11.63;3.03;;;-1.50;99.90;;;;;;5118061;28;20475;-59
2022/12/12 06:03:20;;;;;;;10.30;5.00;;;-1.50;99.90;;;;;;5118528;28;20498;-59
2022/12/12 06:05:47;;;;;;;7.27;3.67;;;-1.60;99.90;;;;;;5117735;28;20816;-59
2022/12/12 06:08:14;;;;;;;12.67;5.33;;;-1.80;99.90;;;;;;5117906;28;20492;-59
2022/12/12 06:10:41;;;;;;;14.83;4.40;;;-1.80;99.90;;;;;;5117349;28;20474;-59
2022/12/12 06:13:08;;;;;;;8.80;4.70;;;-1.80;99.90;;;;;;5117427;28;20469;-60
2022/12/12 06:15:40;;;;;;;12.07;5.27;;;-1.90;99.90;;;;;;5117649;28;20570;-60
2022/12/12 06:18:07;;;;;;;8.40;3.50;;;-1.80;99.90;;;;;;5115980;28;21076;-59
2022/12/12 06:20:33;;;;;;;7.87;3.67;;;-1.80;99.90;;;;;;5115818;28;20502;-59
2022/12/12 06:23:01;;;;;;;12.50;4.67;;;-1.90;99.90;;;;;;5116694;28;20586;-59
2022/12/12 06:25:27;;;;;;;15.80;4.20;;;-1.90;99.90;;;;;;5116128;28;20464;-59
2022/12/12 06:27:54;;;;;;;11.47;3.10;;;-1.90;99.90;;;;;;5116477;28;20464;-59
2022/12/12 06:30:21;;;;;;;9.90;4.47;;;-1.90;99.90;;;;;;5116285;28;20469;-60
2022/12/12 06:32:50;;;;;;;12.40;5.60;;;-2.00;99.90;;;;;;5117013;28;20484;-60
2022/12/12 06:35:17;;;;;;;8.83;4.90;;;-1.90;99.90;;;;;;5117203;28;20868;-59
2022/12/12 06:37:44;;;;;;;11.20;3.97;;;-2.00;99.90;;;;;;5116408;28;20488;-59
2022/12/12 06:40:12;;;;;;;11.30;4.17;;;-1.90;99.90;;;;;;5114981;28;20618;-59
2022/12/12 06:42:39;;;;;;;11.47;3.73;;;-1.70;99.90;;;;;;5116474;28;20530;-60
2022/12/12 06:45:07;;;;;;;14.17;5.10;;;-1.70;99.90;;;;;;5112911;28;20947;-60
2022/12/12 06:47:34;;;;;;;7.50;4.07;;;-1.70;99.90;;;;;;5094485;28;20540;-60
2022/12/12 06:50:03;;;;;;;13.57;5.53;;;-1.70;99.90;;;;;;5102284;28;20957;-60
2022/12/12 06:52:31;;;;;;;13.97;5.40;;;-1.70;99.90;;;;;;5100222;28;20477;-60
2022/12/12 06:54:57;;;;;;;10.43;3.57;;;-1.60;99.90;;;;;;5076335;28;20540;-60
2022/12/12 06:57:24;;;;;;;10.97;5.40;;;-1.60;99.90;;;;;;5102508;28;20453;-60
2022/12/12 06:59:51;;;;;;;9.30;3.90;;;-1.50;99.90;;;;;;5103532;28;20518;-60
2022/12/12 07:02:18;;;;;;;10.03;3.43;;;-1.50;99.90;;;;;;5096083;28;20521;-60
2022/12/12 07:04:45;;;;;;;11.60;4.43;;;-1.60;99.90;;;;;;5094061;28;20475;-60
2022/12/12 07:07:14;;;;;;;13.30;4.97;;;-1.70;99.90;;;;;;5098023;28;20464;-60
2022/12/12 07:09:41;;;;;;;11.30;3.93;;;-1.80;99.90;;;;;;5095545;28;20975;-60
2022/12/12 07:12:08;;;;;;;4.87;4.40;;;-1.80;99.90;;;;;;5101720;28;20629;-60
2022/12/12 07:14:35;;;;;;;11.83;4.90;;;-1.90;99.90;;;;;;5112954;28;20484;-60
2022/12/12 07:17:01;;;;;;;10.27;3.13;;;-2.00;99.90;;;;;;5112220;28;20592;-60
2022/12/12 07:19:28;;;;;;;11.90;5.33;;;-2.00;99.90;;;;;;5098626;28;20533;-60
2022/12/12 07:21:55;;;;;;;10.87;3.93;;;-2.10;99.90;;;;;;5104558;28;21018;-60
2022/12/12 07:24:23;;;;;;;10.63;5.10;;;-2.00;99.90;;;;;;5098683;28;20491;-60
2022/12/12 07:26:50;;;;;;;11.00;5.07;;;-2.00;99.90;;;;;;5104491;28;20496;-59
2022/12/12 07:29:17;;;;;;;12.30;6.77;;;-2.00;99.90;;;;;;5103352;28;20798;-57
2022/12/12 07:31:44;;;;;;;10.97;5.23;;;-2.00;99.90;;;;;;5095249;28;20455;-59
2022/12/12 07:34:11;;;;;;;7.53;2.80;;;-1.90;99.90;;;;;;5094014;28;20552;-59
2022/12/12 07:36:38;;;;;;;10.60;5.10;;;-1.90;99.90;;;;;;5093650;28;20537;-59
2022/12/12 07:39:05;;;;;;;13.13;4.67;;;-1.90;99.90;;;;;;5091956;28;20827;-58
2022/12/12 07:41:33;;;;;;;17.20;5.63;;;-2.00;99.90;;;;;;5099951;28;20465;-59
2022/12/12 07:44:00;;;;;;;10.30;4.53;;;-2.10;99.90;;;;;;5102672;28;20495;-60
2022/12/12 07:46:27;;;;;;;8.10;3.43;;;-2.10;99.90;;;;;;5108279;28;20498;-59
2022/12/12 07:48:54;;;;;;;11.70;4.07;;;-2.10;99.90;;;;;;5110199;28;20464;-59
2022/12/12 07:51:23;;;;;;;8.57;4.30;;;-2.10;99.90;;;;;;5092341;28;20556;-60
2022/12/12 07:53:50;;;;;;;10.90;3.90;;;-2.10;99.90;;;;;;5094535;28;20915;-60
2022/12/12 07:56:18;;;;;;;5.77;3.93;;;-2.10;99.90;;;;;;5094004;28;20493;-60
2022/12/12 07:58:47;;;;;;;16.10;4.07;;;-2.10;99.90;;;;;;5094665;28;20528;-60
2022/12/12 08:01:16;;;;;;;11.97;5.50;;;-2.10;99.90;;;;;;5104421;28;20503;-60
2022/12/12 08:03:43;;;;;;;6.60;2.97;;;-2.10;99.90;;;;;;5102031;28;21028;-60
2022/12/12 08:06:10;;;;;;;9.20;3.77;;;-2.00;99.90;;;;;;5091549;28;20453;-61
2022/12/12 08:08:37;;;;;;;12.93;5.30;;;-1.70;99.90;;;;;;5090530;28;20484;-60
2022/12/12 08:11:06;;;;;;;11.10;5.87;;;-1.60;99.90;;;;;;5104084;28;20488;-58
2022/12/12 08:13:35;;;;;;;18.90;11.02;;;-1.50;99.90;;;;;;5089024;28;20456;-59
2022/12/12 08:16:05;;;;;;;11.17;4.17;;;-1.50;99.90;;;;;;5104305;28;20576;-58
2022/12/12 08:18:32;;;;;;;13.30;3.00;;;-1.60;99.90;;;;;;5094903;28;20477;-59
2022/12/12 08:20:59;;;;;;;14.17;4.83;;;-1.50;99.90;;;;;;5112096;28;20532;-59
2022/12/12 08:23:26;;;;;;;10.03;5.73;;;-1.50;99.90;;;;;;5106810;28;20511;-59
2022/12/12 08:25:53;;;;;;;10.00;3.90;;;-1.60;99.90;;;;;;5097590;28;20449;-59
2022/12/12 08:28:20;;;;;;;12.70;5.10;;;-1.60;99.90;;;;;;5097862;28;20485;-60
2022/12/12 08:30:50;;;;;;;10.50;4.10;;;-1.50;99.90;;;;;;5097015;28;20522;-59
2022/12/12 08:33:20;;;;;;;12.30;3.10;;;-1.60;99.90;;;;;;5103891;28;20826;-60
2022/12/12 08:35:47;;;;;;;11.80;4.40;;;-1.60;99.90;;;;;;5102987;28;20457;-59
2022/12/12 08:38:14;;;;;;;9.53;2.93;;;-1.50;99.90;;;;;;5102545;28;20475;-59
2022/12/12 08:40:41;;;;;;;9.20;3.83;;;-1.50;99.90;;;;;;5098905;28;20515;-59
2022/12/12 08:43:09;;;;;;;10.60;4.43;;;-1.30;99.90;;;;;;5095387;28;20856;-58
2022/12/12 08:45:37;;;;;;;11.27;4.90;;;-1.20;99.90;;;;;;5095303;28;20461;-60
2022/12/12 08:48:05;;;;;;;13.17;5.37;;;-0.90;99.90;;;;;;5101565;28;20530;-60
2022/12/12 08:50:33;;;;;;;11.13;4.67;;;-0.90;99.90;;;;;;5095865;28;20461;-60
2022/12/12 08:53:00;;;;;;;12.00;5.60;;;-0.70;99.90;;;;;;5092114;28;21035;-60
2022/12/12 08:55:27;;;;;;;11.93;5.70;;;-0.70;99.90;;;;;;5092502;28;20558;-60
2022/12/12 08:57:54;;;;;;;10.00;6.00;;;-0.60;99.90;;;;;;5092961;28;20556;-60
2022/12/12 09:00:21;;;;;;;12.93;5.07;;;-0.70;99.90;;;;;;5105404;28;20552;-61
2022/12/12 09:02:48;;;;;;;18.30;5.60;;;-0.80;99.90;;;;;;5093738;28;20512;-60
2022/12/12 09:05:15;;;;;;;15.20;7.85;;;-0.90;99.90;;;;;;5102364;28;20482;-61
2022/12/12 09:07:44;;;;;;;10.30;4.27;;;-1.00;99.90;;;;;;5096625;28;20204;-61
2022/12/12 09:10:11;;;;;;;16.25;8.50;;;-1.00;99.90;;;;;;5098118;28;20487;-61
2022/12/12 09:12:38;;;;;;;13.87;5.60;;;-1.00;99.90;;;;;;5106917;28;20192;-60
2022/12/12 09:15:08;;;;;;;10.57;4.87;;;-1.00;99.90;;;;;;5098939;28;20461;-61
2022/12/12 09:17:36;;;;;;;10.50;4.17;;;-1.00;99.90;;;;;;5097286;28;20501;-61
2022/12/12 09:20:03;;;;;;;12.87;3.50;;;-0.90;99.90;;;;;;5100212;28;20463;-60
2022/12/12 09:22:30;;;;;;;9.50;5.10;;;-0.90;99.90;;;;;;5093620;28;20947;-61
2022/12/12 09:24:59;;;;;;;10.40;4.43;;;-1.00;99.90;;;;;;5082066;28;20465;-60
2022/12/12 09:27:26;;;;;;;15.37;5.70;;;-1.00;99.90;;;;;;5094786;28;20465;-61
2022/12/12 09:29:53;;;;;;;7.80;4.13;;;-1.00;99.90;;;;;;5093997;28;20480;-60
2022/12/12 09:32:20;;;;;;;11.60;5.13;;;-0.90;99.90;;;;;;5093189;28;20831;-61
2022/12/12 09:34:47;;;;;;;16.10;6.37;;;-0.80;99.90;;;;;;5096827;28;20536;-60
2022/12/12 09:37:14;;;;;;;13.60;4.37;;;-0.80;99.90;;;;;;5094525;28;20526;-61
2022/12/12 09:39:41;;;;;;;10.00;3.77;;;-0.80;99.90;;;;;;5090912;28;20952;-60
2022/12/12 09:42:18;;;;;;;9.27;4.97;;;-0.70;99.90;;;;;;5101521;28;20480;-60
2022/12/12 09:44:45;;;;;;;10.70;3.87;;;-0.70;99.90;;;;;;5113868;28;20513;-60
2022/12/12 09:47:17;;;;;;;11.00;4.00;;;-0.70;99.90;;;;;;5103739;28;20457;-59
2022/12/12 09:49:48;;;;;;;10.13;3.83;;;-0.60;99.90;;;;;;5104395;28;20497;-59
2022/12/12 09:52:17;;;;;;;10.50;4.60;;;-0.60;99.90;;;;;;5092627;28;20512;-60
2022/12/12 09:54:45;;;;;;;14.83;4.70;;;-0.60;99.90;;;;;;5091566;28;20473;-59
2022/12/12 09:57:23;;;;;;;8.73;4.87;;;-0.50;99.90;;;;;;5094030;28;20492;-59
2022/12/12 09:59:56;;;;;;;11.40;3.90;;;-0.60;99.90;;;;;;5088152;28;20450;-60
2022/12/12 10:02:42;;;;;;;10.43;4.17;;;-0.50;99.90;;;;;;5094020;28;20473;-59
2022/12/12 10:05:38;;;;;;;7.23;3.17;;;-0.50;99.90;;;;;;5091147;28;20956;-60
2022/12/12 10:08:14;;;;;;;9.13;3.80;;;-0.40;99.90;;;;;;5092806;28;20449;-59
2022/12/12 10:10:44;;;;;;;5.50;3.10;;;-0.40;99.90;;;;;;5093723;28;20903;-60
2022/12/12 10:13:16;;;;;;;10.53;3.90;;;-0.50;99.90;;;;;;5093875;28;20488;-60
2022/12/12 10:15:46;;;;;;;13.00;4.23;;;-0.40;99.90;;;;;;5080508;28;20476;-59
2022/12/12 10:18:16;;;;;;;8.57;2.33;;;-0.50;99.90;;;;;;5095650;28;20900;-60
2022/12/12 10:20:47;;;;;;;10.60;3.63;;;-0.40;99.90;;;;;;5093665;28;20511;-60
2022/12/12 10:23:19;;;;;;;5.47;3.27;;;-0.50;99.90;;;;;;5090848;28;20513;-60
2022/12/12 10:25:52;;;;;;;13.90;5.43;;;-0.40;99.90;;;;;;5093496;28;20484;-59
2022/12/12 10:28:24;;;;;;;9.20;3.90;;;-0.40;99.90;;;;;;5054229;28;20870;-61
2022/12/12 10:31:19;;;;;;;12.33;5.03;;;-0.40;99.90;;;;;;5056508;28;20523;-60
2022/12/12 10:34:01;;;;;;;16.60;3.20;;;-0.30;99.90;;;;;;5079307;28;20533;-60
2022/12/12 10:36:41;;;;;;;7.87;2.47;;;0.00;99.90;;;;;;5090588;28;20489;-61
2022/12/12 10:39:16;;;;;;;11.37;4.17;;;0.10;99.90;;;;;;5092890;28;20608;-61
2022/12/12 10:41:50;;;;;;;9.47;3.57;;;0.10;99.90;;;;;;5063587;28;20511;-59
2022/12/12 10:44:34;;;;;;;12.03;5.07;;;0.10;99.90;;;;;;5070627;28;20511;-60
2022/12/12 10:47:05;;;;;;;15.77;4.90;;;0.10;99.90;;;;;;5053605;28;20524;-61
2022/12/12 10:49:33;;;;;;;8.00;3.00;;;0.20;99.90;;;;;;5066606;28;20457;-61
2022/12/12 10:52:04;;;;;;;12.93;4.77;;;0.20;99.90;;;;;;5072337;28;20473;-60
2022/12/12 10:54:35;;;;;;;7.47;3.40;;;0.20;99.90;;;;;;5076781;28;20908;-61
2022/12/12 10:57:09;;;;;;;14.60;5.40;;;0.20;99.90;;;;;;5075126;28;20461;-59
2022/12/12 10:59:44;;;;;;;10.93;4.27;;;0.20;99.90;;;;;;5070608;28;20446;-59
2022/12/12 11:02:30;;;;;;;5.97;3.27;;;0.10;99.90;;;;;;5083620;28;20453;-59
2022/12/12 11:05:16;;;;;;;8.40;3.73;;;0.20;99.90;;;;;;5077763;28;20872;-59
2022/12/12 11:07:45;;;;;;;6.57;3.20;;;0.20;99.90;;;;;;5079430;28;20936;-59
2022/12/12 11:10:25;;;;;;;9.27;3.43;;;0.20;99.90;;;;;;5062501;28;20567;-60
2022/12/12 11:12:56;;;;;;;13.00;3.63;;;0.10;99.90;;;;;;5066683;28;20494;-60
2022/12/12 11:15:30;;;;;;;9.20;3.10;;;0.10;99.90;;;;;;5086647;28;20530;-60
2022/12/12 11:17:58;;;;;;;13.27;3.50;;;0.00;99.90;;;;;;5077087;28;20492;-58
2022/12/12 11:20:26;;;;;;;5.17;2.37;;;0.10;99.90;;;;;;5059787;28;20905;-59
2022/12/12 11:22:55;;;;;;;4.17;1.43;;;0.00;99.90;;;;;;5077832;28;20517;-58
2022/12/12 11:25:24;;;;;;;;;;;0.00;99.90;;;;;;5064887;28;20305;-52
2022/12/12 11:27:51;;;;;;;;;;;0.10;99.90;;;;;;5058004;28;19924;-48
2022/12/12 11:30:22;;;;;;;;;;;0.20;99.90;;;;;;5061713;28;20289;-49
2022/12/12 11:32:52;;;;;;;;;;;0.30;99.90;;;;;;5053137;28;20008;-52
2022/12/12 11:35:23;;;;;;;;;;;0.40;99.90;;;;;;5053021;28;19956;-51
2022/12/12 11:37:52;;;;;;;;;;;0.50;99.90;;;;;;5063324;28;19921;-50
2022/12/12 11:40:24;;;;;;;7.22;3.95;;;0.60;99.90;;;;;;5059141;28;20454;-54
2022/12/12 11:42:52;;;;;;;4.43;2.30;;;0.60;99.90;;;;;;5051752;28;20687;-50
2022/12/12 11:45:23;;;;;;;7.87;1.90;;;0.70;99.90;;;;;;5065868;28;20517;-54
2022/12/12 11:47:52;;;;;;;5.80;1.03;;;0.70;99.90;;;;;;5069822;28;20770;-55
2022/12/12 11:50:24;;;;;;;4.30;1.53;;;0.80;99.90;;;;;;5088443;28;20547;-51
2022/12/12 11:52:53;;;;;;;2.83;0.83;;;0.80;99.90;;;;;;5091110;28;20517;-53
2022/12/12 11:55:33;;;;;;;3.13;1.73;;;0.80;99.90;;;;;;5089578;28;20534;-53
2022/12/12 11:58:13;;;;;;;3.50;1.27;;;0.80;99.90;;;;;;5075974;28;20450;-53
2022/12/12 12:00:46;;;;;;;13.60;1.30;;;0.90;99.90;;;;;;5071009;28;20504;-53
2022/12/12 12:03:43;;;;;;;3.20;1.30;;;0.90;99.90;;;;;;5088502;28;20469;-54
2022/12/12 12:06:25;;;;;;;11.10;2.07;;;0.90;99.90;;;;;;5075224;28;20450;-55
2022/12/12 12:09:14;;;;;;;4.13;1.73;;;0.90;99.90;;;;;;5076690;28;20481;-54
2022/12/12 12:11:50;;;;;;;2.20;1.17;;;0.90;99.90;;;;;;5079139;28;20536;-55
2022/12/12 12:14:30;;;;;;;2.70;0.87;;;1.00;99.90;;;;;;5069973;28;20441;-57
2022/12/12 12:17:04;;;;;;;5.33;1.10;;;1.00;99.90;;;;;;5071597;28;20485;-54
2022/12/12 12:19:40;;;;;;;2.83;1.00;;;1.10;99.90;;;;;;5067667;28;20473;-58
2022/12/12 12:22:17;;;;;;;3.33;0.80;;;1.20;99.90;;;;;;5067907;28;20449;-56
2022/12/12 12:25:03;;;;;;;2.53;0.90;;;1.30;99.90;;;;;;5071697;28;20837;-53
2022/12/12 12:27:37;;;;;;;2.97;1.00;;;1.50;99.90;;;;;;5050807;28;20491;-52
2022/12/12 12:30:16;;;;;;;2.97;0.90;;;1.60;99.90;;;;;;5066428;28;20446;-52
2022/12/12 12:32:57;;;;;;;4.23;1.00;;;1.60;99.90;;;;;;5077188;28;20486;-53
2022/12/12 12:35:30;;;;;;;1.77;0.90;;;1.60;99.90;;;;;;5084508;28;20454;-49
2022/12/12 12:38:15;;;;;;;1.40;0.60;;;1.70;99.90;;;;;;5079210;28;20456;-52
2022/12/12 12:40:56;;;;;;;1.90;0.70;;;1.70;99.90;;;;;;5073041;28;20452;-52
2022/12/12 12:43:38;;;;;;;2.33;0.80;;;1.60;99.90;;;;;;5071797;28;20573;-52
2022/12/12 12:46:12;;;;;;;6.97;3.10;;;1.60;99.90;;;;;;5061499;28;20469;-55
2022/12/12 12:48:44;;;;;;;1.40;0.83;;;1.40;99.90;;;;;;5062790;28;20544;-55
2022/12/12 12:51:19;;;;;;;1.27;0.70;;;1.70;99.90;;;;;;5071954;28;20429;-53
2022/12/12 12:53:51;;;;;;;1.90;0.97;;;1.80;99.90;;;;;;5090862;28;20444;-49
2022/12/12 12:56:25;;;;;;;2.90;0.90;;;1.70;99.90;;;;;;5102344;27;20493;-53
2022/12/12 12:58:54;;;;;;;2.60;0.83;;;2.00;99.90;;;;;;5095785;28;20458;-50
2022/12/12 13:01:25;;;;;;;3.60;0.90;;;2.10;99.90;;;;;;5090226;28;20467;-53
2022/12/12 13:03:59;;;;;;;1.53;0.63;;;2.00;99.90;;;;;;5096028;28;20452;-51
2022/12/12 13:06:36;;;;;;;1.27;0.80;;;2.00;99.90;;;;;;5093035;28;20477;-52
2022/12/12 13:09:14;;;;;;;1.57;0.90;;;2.20;99.90;;;;;;5089407;28;20913;-52
2022/12/12 13:11:45;;;;;;;1.70;0.90;;;2.30;99.90;;;;;;5092815;28;20666;-53
2022/12/12 13:14:16;;;;;;;8.07;3.30;;;2.40;99.90;;;;;;5095282;28;20442;-53
2022/12/12 13:16:45;;;;;;;7.00;3.70;;;2.20;99.90;;;;;;5092530;28;20838;-52
2022/12/12 13:19:16;;;;;;;7.87;4.17;;;2.20;99.90;;;;;;5092163;28;20548;-52